createdAt,value
2023-02-14T00:01:44.562Z,99356.75
2023-02-14T00:04:30.627Z,99188.88
2023-02-14T00:07:16.895Z,99221.00
2023-02-14T00:10:02.181Z,99389.88
2023-02-14T00:12:47.671Z,99223.19
2023-02-14T00:15:32.914Z,99221.00
2023-02-14T00:18:19.725Z,99374.94
2023-02-14T00:21:05.274Z,99375.47
2023-02-14T00:23:50.371Z,99215.25
2023-02-14T00:26:38.720Z,99374.72
2023-02-14T00:29:28.103Z,99340.06
2023-02-14T00:32:13.607Z,99363.00
2023-02-14T00:35:00.255Z,99360.50
2023-02-14T00:37:47.525Z,99168.72
2023-02-14T00:40:32.985Z,99308.19
2023-02-14T00:43:18.484Z,99381.91
2023-02-14T00:46:04.148Z,99157.31
2023-02-14T00:48:50.240Z,99349.03
2023-02-14T00:51:35.765Z,99331.09
2023-02-14T00:54:21.268Z,99348.78
2023-02-14T00:57:06.997Z,99165.75
2023-02-14T00:59:54.564Z,99345.81
2023-02-14T01:02:40.538Z,99336.84
2023-02-14T01:05:26.676Z,99344.06
2023-02-14T01:08:12.214Z,99186.19
2023-02-14T01:10:58.131Z,99153.84
2023-02-14T01:13:47.317Z,99351.03
2023-02-14T01:16:36.783Z,99313.19
2023-02-14T01:19:22.088Z,99209.31
2023-02-14T01:22:07.545Z,99334.59
2023-02-14T01:24:53.764Z,99322.63
2023-02-14T01:27:40.214Z,99358.00
2023-02-14T01:30:25.845Z,99168.19
2023-02-14T01:33:12.364Z,99385.41
2023-02-14T01:35:58.418Z,99373.44
2023-02-14T01:38:44.200Z,99396.84
2023-02-14T01:41:32.595Z,99362.47
2023-02-14T01:44:18.028Z,99367.22
2023-02-14T01:47:07.570Z,99179.38
2023-02-14T01:50:00.776Z,99350.53
2023-02-14T01:52:55.665Z,99382.94
2023-02-14T01:55:46.591Z,99388.63
2023-02-14T01:58:37.020Z,99359.72
2023-02-14T02:01:23.927Z,99374.69
2023-02-14T02:04:15.586Z,99351.00
2023-02-14T02:07:05.699Z,99183.13
2023-02-14T02:09:57.046Z,99371.44
2023-02-14T02:12:43.807Z,99380.41
2023-02-14T02:15:34.058Z,99373.69
2023-02-14T02:18:35.450Z,99182.16
2023-02-14T02:21:33.667Z,99384.41
2023-02-14T02:24:49.106Z,99351.53
2023-02-14T02:27:44.759Z,99354.03
2023-02-14T02:30:57.906Z,99173.44
2023-02-14T02:33:43.878Z,99372.69
2023-02-14T02:36:57.299Z,99362.47
2023-02-14T02:40:11.417Z,99177.59
2023-02-14T02:42:57.225Z,99378.91
2023-02-14T02:46:04.428Z,99365.47
2023-02-14T02:49:53.955Z,99374.69
2023-02-14T02:53:04.275Z,99365.47
2023-02-14T02:56:22.380Z,99357.75
2023-02-14T02:59:43.349Z,99377.41
2023-02-14T03:02:33.887Z,99371.44
2023-02-14T03:05:19.606Z,99357.25
2023-02-14T03:08:05.774Z,99373.94
2023-02-14T03:10:53.700Z,99370.94
2023-02-14T03:14:01.619Z,99364.25
2023-02-14T03:17:04.749Z,99251.88
2023-02-14T03:20:16.648Z,99355.00
2023-02-14T03:23:18.085Z,99359.50
2023-02-14T03:26:07.303Z,99395.63
2023-02-14T03:28:57.974Z,99220.47
2023-02-14T03:32:07.066Z,99365.00
2023-02-14T03:35:21.539Z,99353.28
2023-02-14T03:38:14.389Z,99372.19
2023-02-14T03:41:07.444Z,99264.81
2023-02-14T03:43:58.098Z,99373.44
2023-02-14T03:46:52.611Z,99365.47
2023-02-14T03:49:45.077Z,99265.09
2023-02-14T03:52:34.248Z,99329.59
2023-02-14T03:55:26.993Z,99358.28
2023-02-14T03:58:17.069Z,99362.47
2023-02-14T04:01:26.224Z,99368.72
2023-02-14T04:04:17.964Z,99365.22
2023-02-14T04:07:18.895Z,99390.63
2023-02-14T04:10:05.187Z,99392.88
2023-02-14T04:12:51.566Z,99338.56
2023-02-14T04:15:37.496Z,99366.97
2023-02-14T04:18:41.590Z,99384.16
2023-02-14T04:21:30.243Z,99299.97
2023-02-14T04:24:17.181Z,99385.91
2023-02-14T04:27:12.213Z,99384.91
2023-02-14T04:29:58.958Z,99384.66
2023-02-14T04:32:45.329Z,99384.41
2023-02-14T04:35:31.580Z,99360.75
2023-02-14T04:38:17.798Z,99373.22
2023-02-14T04:41:03.898Z,99187.59
2023-02-14T04:43:49.489Z,99383.91
2023-02-14T04:46:34.846Z,99174.13
2023-02-14T04:49:20.330Z,99401.59
2023-02-14T04:52:06.610Z,99368.97
2023-02-14T04:54:52.221Z,99185.09
2023-02-14T04:57:38.379Z,99409.81
2023-02-14T05:00:24.892Z,99357.47
2023-02-14T05:03:11.267Z,99366.97
2023-02-14T05:05:57.189Z,99391.38
2023-02-14T05:08:42.861Z,99403.56
2023-02-14T05:11:30.302Z,99419.53
2023-02-14T05:14:15.921Z,99420.78
2023-02-14T05:17:01.358Z,99434.25
2023-02-14T05:19:46.675Z,99417.28
2023-02-14T05:22:32.945Z,99423.28
2023-02-14T05:25:18.871Z,99423.00
2023-02-14T05:28:04.901Z,99466.13
2023-02-14T05:30:51.782Z,99450.69
2023-02-14T05:33:37.761Z,99438.72
2023-02-14T05:36:26.888Z,99459.66
2023-02-14T05:39:14.638Z,99445.44
2023-02-14T05:42:00.270Z,99433.97
2023-02-14T05:44:46.720Z,99446.72
2023-02-14T05:47:32.654Z,99403.81
2023-02-14T05:50:18.505Z,99438.72
2023-02-14T05:53:05.630Z,99409.81
2023-02-14T05:55:53.751Z,99262.53
2023-02-14T05:58:39.737Z,99413.31
2023-02-14T06:01:25.556Z,99390.41
2023-02-14T06:04:11.469Z,99276.72
2023-02-14T06:06:58.393Z,99419.53
2023-02-14T06:09:45.566Z,99403.34
2023-02-14T06:12:31.218Z,99408.09
2023-02-14T06:15:19.438Z,99314.88
2023-02-14T06:18:07.179Z,99403.84
2023-02-14T06:20:55.751Z,99417.56
2023-02-14T06:23:42.410Z,99407.06
2023-02-14T06:26:29.601Z,99427.75
2023-02-14T06:29:18.481Z,99421.53
2023-02-14T06:32:08.055Z,99224.94
2023-02-14T06:34:54.024Z,99427.28
2023-02-14T06:37:41.949Z,99427.75
2023-02-14T06:40:29.087Z,99390.63
2023-02-14T06:43:14.680Z,99415.28
2023-02-14T06:46:01.313Z,99251.31
2023-02-14T06:48:47.542Z,99441.72
2023-02-14T06:51:33.373Z,99438.72
2023-02-14T06:54:19.770Z,99220.97
2023-02-14T06:57:06.124Z,99442.22
2023-02-14T06:59:53.153Z,99440.97
2023-02-14T07:02:38.872Z,99466.66
2023-02-14T07:05:27.268Z,99442.00
2023-02-14T07:08:13.543Z,99436.03
2023-02-14T07:11:00.086Z,99421.31
2023-02-14T07:13:49.349Z,99300.66
2023-02-14T07:16:37.682Z,99453.44
2023-02-14T07:19:33.911Z,99433.50
2023-02-14T07:22:24.145Z,99442.47
2023-02-14T07:25:16.163Z,99291.22
2023-02-14T07:28:07.060Z,99445.22
2023-02-14T07:30:53.891Z,99454.41
2023-02-14T07:33:40.067Z,99437.00
2023-02-14T07:36:26.498Z,99414.81
2023-02-14T07:39:11.784Z,99427.00
2023-02-14T07:41:59.920Z,99465.16
2023-02-14T07:44:46.844Z,99446.72
2023-02-14T07:47:32.607Z,99449.72
2023-02-14T07:50:18.900Z,99466.91
2023-02-14T07:53:05.712Z,99445.72
2023-02-14T07:55:56.611Z,99432.00
2023-02-14T07:58:42.428Z,99415.06
2023-02-14T08:01:29.510Z,99414.59
2023-02-14T08:04:16.582Z,99426.78
2023-02-14T08:07:01.960Z,99421.03
2023-02-14T08:09:48.875Z,99428.28
2023-02-14T08:12:56.309Z,99426.28
2023-02-14T08:16:01.814Z,99423.78
2023-02-14T08:18:47.641Z,99417.56
2023-02-14T08:21:34.092Z,99421.03
2023-02-14T08:24:28.549Z,99392.66
2023-02-14T08:31:12.390Z,99419.03
2023-02-14T08:33:59.600Z,99411.56
2023-02-14T08:36:45.727Z,99227.00
2023-02-14T08:39:33.000Z,99425.81
2023-02-14T08:42:18.285Z,99428.28
2023-02-14T08:45:08.882Z,99416.31
2023-02-14T08:47:55.395Z,99253.63
2023-02-14T08:50:41.216Z,99437.75
2023-02-14T08:53:26.866Z,99419.03
2023-02-14T08:56:14.946Z,99406.34
2023-02-14T08:59:00.976Z,99266.34
2023-02-14T09:01:46.528Z,99420.53
2023-02-14T09:04:35.462Z,99225.78
2023-02-14T09:07:22.195Z,99428.75
2023-02-14T09:10:08.944Z,99429.50
2023-02-14T09:12:54.824Z,99442.25
2023-02-14T09:15:40.663Z,99422.53
2023-02-14T09:18:26.129Z,99437.50
2023-02-14T09:21:14.843Z,99475.16
2023-02-14T09:24:00.460Z,99450.47
2023-02-14T09:26:45.935Z,99259.09
2023-02-14T09:29:32.762Z,99458.44
2023-02-14T09:32:19.219Z,99453.94
2023-02-14T09:35:06.885Z,99457.94
2023-02-14T09:37:52.449Z,99272.06
2023-02-14T09:40:37.957Z,99464.66
2023-02-14T09:43:39.396Z,99406.34
2023-02-14T09:46:26.716Z,99450.69
2023-02-14T09:49:19.870Z,99302.69
2023-02-14T09:52:09.875Z,99441.25
2023-02-14T09:55:01.322Z,99453.72
2023-02-14T09:57:53.532Z,99461.91
2023-02-14T10:00:46.977Z,99476.66
2023-02-14T10:04:01.049Z,99482.63
2023-02-14T10:07:10.282Z,99451.22
2023-02-14T10:10:04.068Z,99437.25
2023-02-14T10:13:08.201Z,99446.22
2023-02-14T10:16:05.379Z,99408.81
2023-02-14T10:19:18.739Z,99474.13
2023-02-14T10:22:12.806Z,99464.19
2023-02-14T10:25:06.604Z,99456.19
2023-02-14T10:27:55.620Z,99448.97
2023-02-14T10:30:58.873Z,99451.97
2023-02-14T10:33:58.008Z,99457.19
2023-02-14T10:37:02.827Z,99457.19
2023-02-14T10:40:10.024Z,99450.69
2023-02-14T10:43:23.106Z,99474.66
2023-02-14T10:46:18.269Z,99446.72
2023-02-14T10:49:22.704Z,99474.41
2023-02-14T10:52:19.609Z,99433.75
2023-02-14T10:55:41.490Z,99469.66
2023-02-14T10:58:29.868Z,99397.38
2023-02-14T11:01:18.097Z,99294.25
2023-02-14T11:04:08.795Z,99476.38
2023-02-14T11:06:54.445Z,99437.22
2023-02-14T11:09:40.242Z,99440.50
2023-02-14T11:12:40.482Z,99457.91
2023-02-14T11:15:35.956Z,99286.78
2023-02-14T11:18:32.031Z,99443.22
2023-02-14T11:21:18.593Z,99372.97
2023-02-14T11:24:17.860Z,99265.88
2023-02-14T11:27:14.720Z,99429.72
2023-02-14T11:30:21.626Z,99432.97
2023-02-14T11:33:35.615Z,99444.69
2023-02-14T11:36:21.620Z,99421.50
2023-02-14T11:39:33.824Z,99227.75
2023-02-14T11:42:40.473Z,99432.97
2023-02-14T11:45:33.138Z,99448.19
2023-02-14T11:48:37.187Z,99426.97
2023-02-14T11:51:36.965Z,99419.50
2023-02-14T11:54:32.285Z,99425.75
2023-02-14T11:57:22.087Z,99420.53
2023-02-14T12:00:20.229Z,99429.25
2023-02-14T12:03:06.819Z,99272.84
2023-02-14T12:05:57.699Z,99427.25
2023-02-14T12:08:43.661Z,99360.72
2023-02-14T12:11:30.326Z,99418.03
2023-02-14T12:14:30.276Z,99423.28
2023-02-14T12:17:38.215Z,99412.78
2023-02-14T12:20:50.066Z,99236.00
2023-02-14T12:23:45.002Z,99422.00
2023-02-14T12:26:43.488Z,99230.53
2023-02-14T12:29:40.293Z,99387.88
2023-02-14T12:32:28.810Z,99435.47
2023-02-14T12:35:17.720Z,99212.13
2023-02-14T12:38:09.438Z,99411.22
2023-02-14T12:41:07.261Z,99437.91
2023-02-14T12:43:58.452Z,99371.13
2023-02-14T12:47:00.357Z,99236.47
2023-02-14T12:50:20.166Z,99418.69
2023-02-14T12:53:35.804Z,99420.66
2023-02-14T12:56:34.708Z,99274.53
2023-02-14T12:59:40.967Z,99435.13
2023-02-14T13:03:02.416Z,99414.69
2023-02-14T13:05:55.191Z,99418.63
2023-02-14T13:09:21.548Z,99415.91
2023-02-14T13:12:07.533Z,99414.41
2023-02-14T13:15:17.288Z,99417.13
2023-02-14T13:18:17.648Z,99271.53
2023-02-14T13:21:08.959Z,99243.19
2023-02-14T13:24:03.579Z,99404.22
2023-02-14T13:26:56.380Z,99448.84
2023-02-14T13:29:50.667Z,99428.38
2023-02-14T13:32:41.425Z,99285.47
2023-02-14T13:35:29.164Z,99437.09
2023-02-14T13:38:19.138Z,99420.66
2023-02-14T13:41:07.719Z,99422.41
2023-02-14T13:44:00.031Z,99396.22
2023-02-14T13:46:50.117Z,99245.41
2023-02-14T13:49:39.779Z,99283.47
2023-02-14T13:52:48.813Z,99289.72
2023-02-14T13:55:43.574Z,99282.22
2023-02-14T13:58:29.553Z,99423.06
2023-02-14T14:01:48.298Z,99421.03
2023-02-14T14:04:36.645Z,99238.16
2023-02-14T14:07:30.855Z,99357.31
2023-02-14T14:10:45.956Z,99425.53
2023-02-14T14:13:40.965Z,99417.78
2023-02-14T14:16:31.652Z,99455.00
2023-02-14T14:19:17.216Z,99427.56
2023-02-14T14:22:14.493Z,99391.72
2023-02-14T14:25:05.824Z,99294.69
2023-02-14T14:27:51.250Z,99398.91
2023-02-14T14:30:38.861Z,99241.66
2023-02-14T14:33:34.067Z,99444.03
2023-02-14T14:36:24.040Z,99399.66
2023-02-14T14:39:10.866Z,99446.75
2023-02-14T14:42:06.924Z,99441.75
2023-02-14T14:44:57.310Z,99444.50
2023-02-14T14:47:45.655Z,99489.69
2023-02-14T14:50:33.772Z,99409.69
2023-02-14T14:53:25.289Z,99242.66
2023-02-14T14:56:30.929Z,99378.56
2023-02-14T14:59:35.177Z,99436.63
2023-02-14T15:02:25.095Z,99458.50
2023-02-14T15:05:22.993Z,99421.13
2023-02-14T15:08:33.120Z,99446.31
2023-02-14T15:11:47.785Z,99287.25
2023-02-14T15:14:37.323Z,99461.53
2023-02-14T15:17:28.711Z,99455.81
2023-02-14T15:20:18.819Z,99451.59
2023-02-14T15:23:05.040Z,99286.50
2023-02-14T15:25:52.593Z,99289.25
2023-02-14T15:28:39.201Z,99323.13
2023-02-14T15:31:29.683Z,99299.47
2023-02-14T15:34:15.527Z,99339.56
2023-02-14T15:37:06.693Z,99483.56
2023-02-14T15:39:58.015Z,99477.59
2023-02-14T15:42:45.189Z,99476.59
2023-02-14T15:45:31.415Z,99299.25
2023-02-14T15:48:27.298Z,99488.06
2023-02-14T15:51:27.099Z,99488.06
2023-02-14T15:54:41.698Z,99478.34
2023-02-14T15:57:29.692Z,99383.94
2023-02-14T16:00:22.947Z,99298.72
2023-02-14T16:03:14.622Z,99507.06
2023-02-14T16:06:00.397Z,99318.91
2023-02-14T16:08:55.705Z,99492.78
2023-02-14T16:11:41.533Z,99506.53
2023-02-14T16:14:35.371Z,99472.13
2023-02-14T16:17:33.546Z,99513.28
2023-02-14T16:20:43.320Z,99481.38
2023-02-14T16:23:29.376Z,99356.03
2023-02-14T16:26:15.352Z,99367.47
2023-02-14T16:29:16.026Z,99503.56
2023-02-14T16:32:17.043Z,99525.03
2023-02-14T16:35:03.339Z,99518.53
2023-02-14T16:37:51.805Z,99497.59
2023-02-14T16:40:37.805Z,99526.50
2023-02-14T16:43:25.815Z,99527.50
2023-02-14T16:46:16.068Z,99350.75
2023-02-14T16:49:03.583Z,99528.50
2023-02-14T16:51:49.322Z,99523.50
2023-02-14T16:54:38.933Z,99347.47
2023-02-14T16:57:32.438Z,99534.00
2023-02-14T17:00:18.065Z,99574.13
2023-02-14T17:03:07.084Z,99562.38
2023-02-14T17:05:52.948Z,99539.69
2023-02-14T17:08:43.679Z,99542.44
2023-02-14T17:11:32.465Z,99540.41
2023-02-14T17:14:23.567Z,99533.69
2023-02-14T17:17:10.281Z,99387.25
2023-02-14T17:19:56.033Z,99549.88
2023-02-14T17:22:42.923Z,99385.22
2023-02-14T17:25:31.450Z,99609.22
2023-02-14T17:28:16.838Z,99581.03
2023-02-14T17:31:03.573Z,99601.75
2023-02-14T17:33:50.401Z,99388.66
2023-02-14T17:36:37.845Z,99576.06
2023-02-14T17:39:23.873Z,99535.09
2023-02-14T17:42:11.735Z,99570.56
2023-02-14T17:44:58.796Z,99576.03
2023-02-14T17:47:45.189Z,99562.81
2023-02-14T17:50:34.883Z,99541.31
2023-02-14T17:53:20.925Z,99569.78
2023-02-14T17:56:09.311Z,99447.97
2023-02-14T17:58:55.265Z,99612.72
2023-02-14T18:01:40.950Z,99637.38
2023-02-14T18:04:26.441Z,99609.72
2023-02-14T18:07:13.980Z,99420.72
2023-02-14T18:09:59.448Z,99581.00
2023-02-14T18:12:44.875Z,99647.63
2023-02-14T18:15:30.837Z,99427.47
2023-02-14T18:18:17.009Z,99624.69
2023-02-14T18:21:04.895Z,99585.97
2023-02-14T18:23:50.591Z,99619.69
2023-02-14T18:26:38.436Z,99631.16
2023-02-14T18:29:24.126Z,99633.09
2023-02-14T18:32:10.354Z,99598.97
2023-02-14T18:34:55.831Z,99648.84
2023-02-14T18:37:42.026Z,99484.34
2023-02-14T18:40:28.146Z,99629.38
2023-02-14T18:43:14.100Z,99634.13
2023-02-14T18:46:04.536Z,99463.75
2023-02-14T18:48:51.005Z,99636.09
2023-02-14T18:51:39.501Z,99605.63
2023-02-14T18:54:25.150Z,99614.06
2023-02-14T18:57:10.923Z,99606.13
2023-02-14T18:59:57.454Z,99456.00
2023-02-14T19:02:46.033Z,99611.31
2023-02-14T19:05:35.546Z,99624.97
2023-02-14T19:08:22.818Z,99636.56
2023-02-14T19:11:18.256Z,99434.97
2023-02-14T19:14:11.207Z,99612.84
2023-02-14T19:16:57.891Z,99641.06
2023-02-14T19:19:46.079Z,99637.84
2023-02-14T19:22:37.380Z,99638.59
2023-02-14T19:25:23.956Z,99628.59
2023-02-14T19:28:12.082Z,99648.50
2023-02-14T19:30:59.881Z,99639.50
2023-02-14T19:33:47.926Z,99437.31
2023-02-14T19:36:38.301Z,99447.53
2023-02-14T19:39:29.655Z,99624.63
2023-02-14T19:42:16.332Z,99452.81
2023-02-14T19:45:03.888Z,99623.84
2023-02-14T19:47:53.737Z,99611.84
2023-02-14T19:50:40.838Z,99634.59
2023-02-14T19:53:29.297Z,99634.06
2023-02-14T19:56:25.012Z,99454.50
2023-02-14T19:59:16.442Z,99646.06
2023-02-14T20:02:03.055Z,99658.00
2023-02-14T20:04:50.290Z,99642.09
2023-02-14T20:07:36.068Z,99615.88
2023-02-14T20:10:22.383Z,99650.00
2023-02-14T20:13:09.763Z,99653.06
2023-02-14T20:15:55.314Z,99634.88
2023-02-14T20:18:41.277Z,99631.88
2023-02-14T20:21:28.545Z,99629.13
2023-02-14T20:24:18.648Z,99662.78
2023-02-14T20:27:05.103Z,99609.63
2023-02-14T20:29:52.108Z,99631.88
2023-02-14T20:32:38.438Z,99656.28
2023-02-14T20:35:25.971Z,99641.47
2023-02-14T20:38:12.201Z,99645.56
2023-02-14T20:40:58.617Z,99620.59
2023-02-14T20:43:47.620Z,99453.50
2023-02-14T20:46:35.077Z,99635.31
2023-02-14T20:49:23.357Z,99590.59
2023-02-14T20:52:08.961Z,99670.94
2023-02-14T20:54:55.133Z,99502.19
2023-02-14T20:57:42.302Z,99637.09
2023-02-14T21:00:30.148Z,99647.31
2023-02-14T21:03:17.385Z,99454.50
2023-02-14T21:06:05.623Z,99647.59
2023-02-14T21:08:51.642Z,99451.56
2023-02-14T21:11:37.342Z,99625.06
2023-02-14T21:14:23.092Z,99664.25
2023-02-14T21:17:08.956Z,99638.84
2023-02-14T21:19:54.198Z,99647.00
2023-02-14T21:22:40.078Z,99653.06
2023-02-14T21:25:26.748Z,99658.00
2023-02-14T21:28:15.270Z,99528.59
2023-02-14T21:31:09.562Z,99647.00
2023-02-14T21:33:58.399Z,99609.53
2023-02-14T21:36:45.053Z,99661.47
2023-02-14T21:39:38.003Z,99645.78
2023-02-14T21:42:24.833Z,99632.03
2023-02-14T21:45:31.664Z,99676.41
2023-02-14T21:48:35.961Z,99659.25
2023-02-14T21:51:23.682Z,99686.88
2023-02-14T21:54:09.422Z,99509.34
2023-02-14T21:56:56.186Z,99654.00
2023-02-14T21:59:45.584Z,99658.97
2023-02-14T22:02:32.231Z,99671.44
2023-02-14T22:05:17.742Z,99648.00
2023-02-14T22:08:05.891Z,99456.44
2023-02-14T22:10:52.028Z,99465.44
2023-02-14T22:13:38.525Z,99465.19
2023-02-14T22:16:25.336Z,99499.66
2023-02-14T22:19:15.246Z,99637.28
2023-02-14T22:22:01.605Z,99645.56
2023-02-14T22:30:51.044Z,99629.75
2023-02-14T22:33:37.894Z,99637.00
2023-02-14T22:36:23.929Z,99496.06
2023-02-14T22:39:13.922Z,99653.63
2023-02-14T22:42:02.426Z,99683.88
2023-02-14T22:44:48.107Z,99662.47
2023-02-14T22:47:36.623Z,99638.50
2023-02-14T22:50:22.071Z,99650.19
2023-02-14T22:53:09.517Z,99662.22
2023-02-14T22:55:55.625Z,99681.84
2023-02-14T22:58:41.844Z,99690.06
2023-02-14T23:01:28.185Z,99676.19
2023-02-14T23:04:15.924Z,99667.66
2023-02-14T23:07:01.542Z,99675.34
2023-02-14T23:09:50.252Z,99516.22
2023-02-14T23:12:54.111Z,99611.41
2023-02-14T23:16:00.325Z,99668.41
2023-02-14T23:19:04.456Z,99651.91
2023-02-14T23:21:55.916Z,99669.66
2023-02-14T23:24:45.643Z,99674.41
2023-02-14T23:27:38.239Z,99498.22
2023-02-14T23:30:24.041Z,99636.44
2023-02-14T23:33:11.702Z,99663.22
2023-02-14T23:35:57.113Z,99653.44
2023-02-14T23:38:42.594Z,99481.44
2023-02-14T23:41:46.679Z,99658.38
2023-02-14T23:44:33.425Z,99620.91
2023-02-14T23:47:18.832Z,99464.66
2023-02-14T23:50:04.529Z,99668.50
2023-02-14T23:52:51.095Z,99660.81
2023-02-14T23:55:36.895Z,99657.78
2023-02-14T23:58:22.222Z,99651.81
